Time;durP1;ratioP1;P1;durP2;ratioP2;P2;SDS_P1;SDS_P2;PMS_P1;PMS_P2;Temp;Humidity;BMP_temperature;BMP_pressure;BME280_temperature;BME280_humidity;BME280_pressure;Samples;Min_cycle;Max_cycle;Signal;HPM_P1;HPM_P2
2022/02/03 00:00:42;;;;;;;58.85;21.33;;;;;;;;;;5064059;28;20024;-71
2022/02/03 00:03:24;;;;;;;47.15;17.92;;;;;;;;;;5065669;28;20016;-71
2022/02/03 00:05:55;;;;;;;55.20;18.73;;;;;;;;;;5071568;28;20017;-71
2022/02/03 00:08:33;;;;;;;48.53;17.90;;;;;;;;;;5066331;28;20017;-71
2022/02/03 00:24:41;;;;;;;48.60;18.67;;;;;;;;;;5068686;28;20028;-71
2022/02/03 00:27:14;;;;;;;52.65;18.70;;;;;;;;;;5068638;28;20048;-71
2022/02/03 00:30:03;;;;;;;58.97;19.58;;;;;;;;;;5068771;28;20377;-71
2022/02/03 00:32:46;;;;;;;57.97;23.90;;;;;;;;;;5071295;28;20062;-71
2022/02/03 00:48:33;;;;;;;77.55;25.35;;;;;;;;;;5073511;28;20023;-71
2022/02/03 00:50:59;;;;;;;73.00;24.10;;;;;;;;;;5069601;28;20051;-70
2022/02/03 00:53:25;;;;;;;65.97;23.20;;;;;;;;;;5072300;28;20023;-71
2022/02/03 00:55:53;;;;;;;65.45;22.27;;;;;;;;;;5072810;28;20032;-71
2022/02/03 00:58:22;;;;;;;83.28;27.50;;;;;;;;;;5071914;28;20020;-71
2022/02/03 01:00:49;;;;;;;72.80;26.23;;;;;;;;;;5065665;28;20067;-71
2022/02/03 01:03:14;;;;;;;84.13;26.85;;;;;;;;;;5071432;28;20043;-71
2022/02/03 01:05:41;;;;;;;70.40;24.58;;;;;;;;;;5070711;28;20032;-71
2022/02/03 01:08:16;;;;;;;61.13;22.83;;;;;;;;;;5077947;28;20106;-71
2022/02/03 01:10:48;;;;;;;68.80;24.88;;;;;;;;;;5067635;28;20469;-71
2022/02/03 01:13:24;;;;;;;69.20;23.95;;;;;;;;;;5068782;28;20024;-71
2022/02/03 01:16:01;;;;;;;56.17;19.73;;;;;;;;;;5075460;28;20042;-71
2022/02/03 01:35:14;;;;;;;60.63;22.77;;;;;;;;;;5072079;28;20040;-71
2022/02/03 01:45:55;;;;;;;52.80;21.58;;;;;;;;;;5069670;28;20035;-71
2022/02/03 01:53:50;;;;;;;49.17;19.55;;;;;;;;;;5072025;28;20051;-71
2022/02/03 01:56:16;;;;;;;58.22;23.00;;;;;;;;;;5073580;28;20476;-71
2022/02/03 01:58:45;;;;;;;64.97;22.77;;;;;;;;;;5075775;28;20378;-71
2022/02/03 02:01:12;;;;;;;50.25;17.30;;;;;;;;;;5069940;28;20130;-71
2022/02/03 02:03:39;;;;;;;60.90;20.48;;;;;;;;;;5068475;28;20031;-71
2022/02/03 02:06:20;;;;;;;52.38;17.95;;;;;;;;;;5078835;28;20513;-71
2022/02/03 02:09:14;;;;;;;55.20;21.17;;;;;;;;;;5056885;28;20025;-71
2022/02/03 02:12:02;;;;;;;67.82;24.02;;;;;;;;;;5012092;28;20041;-71
2022/02/03 02:39:05;;;;;;;54.95;20.92;;;;;;;;;;5077453;28;20035;-70
2022/02/03 02:44:02;;;;;;;49.25;19.02;;;;;;;;;;5073379;28;20040;-70
2022/02/03 02:46:30;;;;;;;49.10;19.70;;;;;;;;;;5073032;28;20062;-70
2022/02/03 02:49:07;;;;;;;60.15;20.77;;;;;;;;;;5073423;28;20024;-70
2022/02/03 02:51:37;;;;;;;37.90;15.60;;;;;;;;;;5069022;28;20541;-70
2022/02/03 02:56:55;;;;;;;46.33;19.23;;;;;;;;;;5069566;28;20463;-70
2022/02/03 03:35:46;;;;;;;27.08;12.23;;;;;;;;;;5050541;28;20099;-70
2022/02/03 03:38:15;;;;;;;26.08;13.73;;;;;;;;;;5076686;28;20021;-70
2022/02/03 03:40:45;;;;;;;30.75;11.55;;;;;;;;;;5066037;28;20016;-70
2022/02/03 03:43:16;;;;;;;36.53;15.05;;;;;;;;;;5071487;28;20016;-70
2022/02/03 03:45:41;;;;;;;;;;;;;;;;;;5069699;28;20032;-70
2022/02/03 03:48:06;;;;;;;31.05;14.80;;;;;;;;;;5071931;28;20348;-70
2022/02/03 03:50:37;;;;;;;41.38;16.20;;;;;;;;;;5067426;28;20298;-70
2022/02/03 03:53:17;;;;;;;33.28;15.75;;;;;;;;;;5084653;28;20048;-70
2022/02/03 03:55:59;;;;;;;37.40;16.52;;;;;;;;;;5073775;28;20026;-70
2022/02/03 05:02:18;;;;;;;17.85;6.07;;;;;;;;;;5062422;28;20030;-70
2022/02/03 05:33:28;;;;;;;14.85;6.75;;;;;;;;;;5071813;28;20035;-70
2022/02/03 05:45:03;;;;;;;20.95;8.35;;;;;;;;;;5081279;28;20142;-72
2022/02/03 05:47:59;;;;;;;18.33;6.60;;;;;;;;;;5070028;28;20020;-72
2022/02/03 06:06:31;;;;;;;15.07;7.32;;;;;;;;;;5072781;28;20075;-69
2022/02/03 06:14:12;;;;;;;21.98;8.82;;;;;;;;;;5061726;28;20416;-70
2022/02/03 06:16:59;;;;;;;22.83;9.63;;;;;;;;;;5067680;28;20024;-71
2022/02/03 06:22:52;;;;;;;16.42;8.52;;;;;;;;;;5002752;28;20033;-70
2022/02/03 06:27:47;;;;;;;19.05;8.60;;;;;;;;;;5058433;28;20964;-70
2022/02/03 06:30:21;;;;;;;26.70;9.85;;;;;;;;;;5073987;28;20024;-69
2022/02/03 06:32:46;;;;;;;23.50;9.35;;;;;;;;;;5076689;28;20021;-72
2022/02/03 06:35:13;;;;;;;23.33;9.73;;;;;;;;;;5068297;28;20024;-70
2022/02/03 06:37:38;;;;;;;24.15;9.18;;;;;;;;;;5068364;28;20079;-69
2022/02/03 06:40:05;;;;;;;21.00;9.35;;;;;;;;;;5076036;28;20023;-70
2022/02/03 06:42:30;;;;;;;20.13;9.27;;;;;;;;;;5072192;28;20024;-71
2022/02/03 06:45:02;;;;;;;18.00;9.07;;;;;;;;;;5076542;28;20480;-70
2022/02/03 06:50:01;;;;;;;17.95;8.25;;;;;;;;;;5068809;28;20377;-70
2022/02/03 06:52:45;;;;;;;19.17;8.88;;;;;;;;;;5074206;28;20077;-70
2022/02/03 06:58:03;;;;;;;24.35;9.50;;;;;;;;;;5072488;28;20114;-70
2022/02/03 07:00:34;;;;;;;25.60;10.52;;;;;;;;;;5063110;28;20047;-70
2022/02/03 07:03:01;;;;;;;;;;;;;;;;;;5067202;28;20028;-70
2022/02/03 07:05:26;;;;;;;24.00;9.60;;;;;;;;;;5064295;28;19912;-70
2022/02/03 07:07:52;;;;;;;24.83;10.80;;;;;;;;;;5073497;28;20012;-70
2022/02/03 07:10:18;;;;;;;21.42;10.50;;;;;;;;;;5088484;28;20099;-70
2022/02/03 07:12:43;;;;;;;30.63;12.18;;;;;;;;;;5085798;28;20020;-70
2022/02/03 07:15:09;;;;;;;25.08;10.52;;;;;;;;;;5074588;28;20063;-70
2022/02/03 07:17:35;;;;;;;29.02;12.55;;;;;;;;;;5079094;28;20045;-70
2022/02/03 07:20:03;;;;;;;27.20;10.95;;;;;;;;;;5081695;28;20392;-70
2022/02/03 07:22:29;;;;;;;27.27;10.48;;;;;;;;;;5090444;28;20025;-70
2022/02/03 07:24:54;;;;;;;29.00;11.57;;;;;;;;;;5084533;28;20028;-70
2022/02/03 07:27:20;;;;;;;29.83;11.07;;;;;;;;;;5061117;28;20104;-70
2022/02/03 07:29:46;;;;;;;28.25;13.27;;;;;;;;;;5068600;28;20017;-70
2022/02/03 07:32:11;;;;;;;28.05;12.43;;;;;;;;;;5085093;28;20024;-70
2022/02/03 07:34:36;;;;;;;25.98;11.65;;;;;;;;;;5092027;28;20033;-70
2022/02/03 07:37:01;;;;;;;28.48;12.00;;;;;;;;;;5076745;28;20457;-70
2022/02/03 07:39:27;;;;;;;28.77;12.43;;;;;;;;;;5087914;28;20019;-70
2022/02/03 07:41:52;;;;;;;33.15;13.10;;;;;;;;;;5072884;28;20024;-70
2022/02/03 07:44:17;;;;;;;31.90;12.40;;;;;;;;;;5075368;28;20481;-70
2022/02/03 07:46:42;;;;;;;31.45;14.32;;;;;;;;;;5067873;28;20044;-70
2022/02/03 07:49:08;;;;;;;29.40;14.00;;;;;;;;;;5070789;28;20107;-70
2022/02/03 07:51:33;;;;;;;29.40;12.80;;;;;;;;;;5082818;28;20016;-70
2022/02/03 07:53:58;;;;;;;35.45;15.18;;;;;;;;;;5086450;28;20066;-70
2022/02/03 07:56:23;;;;;;;40.70;15.87;;;;;;;;;;5074986;28;20024;-70
2022/02/03 07:58:48;;;;;;;37.33;14.90;;;;;;;;;;5093126;28;20250;-70
2022/02/03 08:01:14;;;;;;;32.30;15.32;;;;;;;;;;5085704;28;20266;-70
2022/02/03 08:03:42;;;;;;;54.28;17.15;;;;;;;;;;5086707;28;20016;-70
2022/02/03 08:06:11;;;;;;;50.22;17.95;;;;;;;;;;5073530;28;20108;-70
2022/02/03 08:08:53;;;;;;;46.10;16.98;;;;;;;;;;5061488;28;20020;-70
2022/02/03 08:11:29;;;;;;;42.95;16.83;;;;;;;;;;5070115;28;20389;-70
2022/02/03 08:14:04;;;;;;;39.92;16.83;;;;;;;;;;5077438;28;20017;-70
2022/02/03 08:16:38;;;;;;;45.95;17.42;;;;;;;;;;5070129;28;20016;-70
2022/02/03 08:19:12;;;;;;;39.50;16.20;;;;;;;;;;5072247;28;20091;-71
2022/02/03 08:21:43;;;;;;;49.83;17.73;;;;;;;;;;5070339;28;20104;-70
2022/02/03 08:31:55;;;;;;;43.63;17.57;;;;;;;;;;5051874;28;20032;-70
2022/02/03 08:34:36;;;;;;;36.95;15.40;;;;;;;;;;5069214;28;20353;-70
2022/02/03 08:37:04;;;;;;;41.25;15.18;;;;;;;;;;5092181;28;20457;-70
2022/02/03 08:39:34;;;;;;;46.30;17.77;;;;;;;;;;5090842;28;20038;-70
2022/02/03 08:41:59;;;;;;;58.47;19.88;;;;;;;;;;5092100;28;20039;-70
2022/02/03 08:44:25;;;;;;;47.50;18.05;;;;;;;;;;5078404;28;20020;-70
2022/02/03 08:46:50;;;;;;;44.25;16.65;;;;;;;;;;5071967;28;20065;-70
2022/02/03 08:49:16;;;;;;;53.25;18.63;;;;;;;;;;5068523;28;20017;-70
2022/02/03 08:51:45;;;;;;;47.72;17.02;;;;;;;;;;5065383;28;20485;-70
2022/02/03 08:54:12;;;;;;;44.75;17.88;;;;;;;;;;5071695;28;20032;-70
2022/02/03 08:56:53;;;;;;;60.40;20.38;;;;;;;;;;5071926;28;20495;-70
2022/02/03 09:57:04;;;;;;;31.65;12.70;;;;;;;;;;5070577;28;20150;-70
2022/02/03 09:59:13;;;;;;;29.45;11.98;;;;;;;;;;5064612;28;20036;-70
2022/02/03 10:01:43;;;;;;;19.30;10.68;;;;;;;;;;5070636;28;20016;-70
2022/02/03 10:04:16;;;;;;;16.77;7.85;;;;;;;;;;5078094;28;20157;-70
2022/02/03 10:06:53;;;;;;;17.65;8.55;;;;;;;;;;5088224;28;20020;-70
2022/02/03 10:09:34;;;;;;;18.15;8.52;;;;;;;;;;5069161;28;20031;-70
2022/02/03 10:12:00;;;;;;;15.38;7.07;;;;;;;;;;5070408;28;20027;-70
2022/02/03 10:14:32;;;;;;;11.50;5.93;;;;;;;;;;5070435;28;20020;-70
2022/02/03 10:16:57;;;;;;;10.85;5.53;;;;;;;;;;5070443;28;20100;-70
2022/02/03 10:19:29;;;;;;;14.27;6.47;;;;;;;;;;5069952;28;20193;-70
2022/02/03 10:21:55;;;;;;;15.95;6.20;;;;;;;;;;5055766;28;20028;-70
2022/02/03 10:24:22;;;;;;;12.20;5.43;;;;;;;;;;5053835;28;20021;-70
2022/02/03 10:26:51;;;;;;;11.27;5.78;;;;;;;;;;5071381;28;20019;-70
2022/02/03 10:29:21;;;;;;;9.35;5.95;;;;;;;;;;5069911;28;20480;-70
2022/02/03 10:31:47;;;;;;;9.70;5.43;;;;;;;;;;5082688;28;20435;-69
2022/02/03 10:34:16;;;;;;;12.30;3.95;;;;;;;;;;5072618;28;20028;-70
2022/02/03 10:58:01;;;;;;;4.30;2.72;;;;;;;;;;5073995;28;20077;-70
2022/02/03 11:08:22;;;;;;;9.10;4.07;;;;;;;;;;5073830;28;20262;-70
2022/02/03 11:10:51;;;;;;;8.90;4.53;;;;;;;;;;5073930;28;20095;-70
2022/02/03 11:13:17;;;;;;;6.35;3.42;;;;;;;;;;5073534;28;20013;-70
2022/02/03 11:15:43;;;;;;;10.40;3.30;;;;;;;;;;5073856;28;20020;-70
2022/02/03 11:18:08;;;;;;;8.93;3.13;;;;;;;;;;5073482;28;20024;-70
2022/02/03 11:20:38;;;;;;;4.80;3.15;;;;;;;;;;5075820;28;20388;-70
2022/02/03 11:28:21;;;;;;;6.35;3.72;;;;;;;;;;5067402;28;20465;-70
2022/02/03 11:38:57;;;;;;;15.20;6.20;;;;;;;;;;5089065;28;20158;-70
2022/02/03 11:50:09;;;;;;;14.30;6.68;;;;;;;;;;5069902;28;20032;-70
2022/02/03 11:58:35;;;;;;;17.17;8.45;;;;;;;;;;5059237;28;20120;-69
2022/02/03 12:01:33;;;;;;;19.13;7.07;;;;;;;;;;5052942;28;20032;-71
2022/02/03 12:15:43;;;;;;;10.20;6.55;;;;;;;;;;5061573;28;20054;-69
2022/02/03 12:18:30;;;;;;;11.85;5.10;;;;;;;;;;5052880;28;20029;-72
2022/02/03 12:21:06;;;;;;;9.57;5.22;;;;;;;;;;5061050;28;20020;-71
2022/02/03 12:23:42;;;;;;;8.77;4.68;;;;;;;;;;5070670;28;20488;-69
2022/02/03 12:26:14;;;;;;;14.93;5.03;;;;;;;;;;5077256;28;20499;-69
2022/02/03 12:28:58;;;;;;;7.18;4.38;;;;;;;;;;5073231;28;20047;-69
2022/02/03 12:39:13;;;;;;;14.05;6.90;;;;;;;;;;5090716;28;20850;-71
2022/02/03 12:42:01;;;;;;;19.08;8.48;;;;;;;;;;5066031;28;20054;-69
2022/02/03 12:44:28;;;;;;;18.25;7.32;;;;;;;;;;5051181;28;20406;-69
2022/02/03 12:47:02;;;;;;;21.05;7.88;;;;;;;;;;5058580;28;20012;-71
2022/02/03 12:49:27;;;;;;;11.25;5.65;;;;;;;;;;5071667;28;20026;-72
2022/02/03 12:51:52;;;;;;;10.67;5.27;;;;;;;;;;5067151;28;20098;-71
2022/02/03 12:54:17;;;;;;;7.82;4.70;;;;;;;;;;5074399;28;20893;-70
2022/02/03 12:56:42;;;;;;;7.65;4.43;;;;;;;;;;5074437;28;20024;-71
2022/02/03 12:59:13;;;;;;;13.25;4.15;;;;;;;;;;5071748;28;20036;-69
2022/02/03 13:01:40;;;;;;;6.95;4.60;;;;;;;;;;5063160;28;20021;-69
2022/02/03 13:04:16;;;;;;;11.45;5.00;;;;;;;;;;5072028;28;20021;-71
2022/02/03 13:06:55;;;;;;;6.43;4.18;;;;;;;;;;5051757;28;20016;-68
2022/02/03 13:09:27;;;;;;;5.90;3.13;;;;;;;;;;5073419;28;20016;-69
2022/02/03 13:11:56;;;;;;;6.15;3.40;;;;;;;;;;5067302;28;20192;-68
2022/02/03 13:14:43;;;;;;;7.88;4.43;;;;;;;;;;5066516;28;20532;-69
2022/02/03 13:17:17;;;;;;;14.80;7.38;;;;;;;;;;5073260;28;20020;-70
2022/02/03 13:19:54;;;;;;;9.73;6.07;;;;;;;;;;5090818;28;20152;-69
2022/02/03 13:25:11;;;;;;;18.60;5.47;;;;;;;;;;5071385;28;20073;-72
2022/02/03 13:30:12;;;;;;;3.47;2.58;;;;;;;;;;5051244;28;20160;-71
2022/02/03 13:32:46;;;;;;;6.22;3.30;;;;;;;;;;5066796;28;20086;-72
2022/02/03 13:35:29;;;;;;;4.75;2.45;;;;;;;;;;5055988;28;20021;-71
2022/02/03 13:37:59;;;;;;;8.77;3.90;;;;;;;;;;5069138;28;20016;-72
2022/02/03 13:40:27;;;;;;;9.38;3.40;;;;;;;;;;5069452;28;20032;-71
2022/02/03 13:43:03;;;;;;;1.98;1.13;;;;;;;;;;5066817;28;20081;-72
2022/02/03 13:45:28;;;;;;;6.95;3.72;;;;;;;;;;5070267;28;20539;-71
2022/02/03 13:47:53;;;;;;;5.82;2.80;;;;;;;;;;5070732;28;20111;-72
2022/02/03 13:50:25;;;;;;;15.98;4.45;;;;;;;;;;5063395;28;20024;-72
2022/02/03 14:22:11;;;;;;;8.90;3.10;;;;;;;;;;5090381;28;20035;-72
2022/02/03 14:27:26;;;;;;;10.30;4.95;;;;;;;;;;5070360;28;20093;-72
2022/02/03 14:29:55;;;;;;;10.35;4.75;;;;;;;;;;5080503;28;20095;-72
2022/02/03 14:32:35;;;;;;;8.98;4.55;;;;;;;;;;5067483;28;20094;-72
2022/02/03 14:35:00;;;;;;;13.93;4.50;;;;;;;;;;5053855;28;20024;-72
2022/02/03 14:37:41;;;;;;;4.80;3.15;;;;;;;;;;5070059;28;20036;-72
2022/02/03 14:42:38;;;;;;;9.52;5.28;;;;;;;;;;5070007;28;20158;-72
2022/02/03 14:45:04;;;;;;;9.40;4.72;;;;;;;;;;5067803;28;20427;-72
2022/02/03 14:47:31;;;;;;;10.20;4.68;;;;;;;;;;5070183;28;20074;-72
2022/02/03 14:50:00;;;;;;;10.40;5.00;;;;;;;;;;5065525;28;20009;-72
2022/02/03 14:52:29;;;;;;;4.63;2.88;;;;;;;;;;5060302;28;20182;-73
2022/02/03 15:00:24;;;;;;;8.32;4.32;;;;;;;;;;5069786;28;20121;-72
2022/02/03 15:02:50;;;;;;;7.72;3.20;;;;;;;;;;5069810;28;20020;-71
2022/02/03 15:05:23;;;;;;;10.55;4.72;;;;;;;;;;5069652;28;20031;-72
2022/02/03 15:07:55;;;;;;;11.52;5.90;;;;;;;;;;5069473;28;20021;-71
2022/02/03 15:11:04;;;;;;;13.25;5.55;;;;;;;;;;5069916;28;20106;-71
2022/02/03 15:13:33;;;;;;;10.02;3.35;;;;;;;;;;5062722;28;20074;-72
2022/02/03 15:15:59;;;;;;;8.18;5.30;;;;;;;;;;5065939;28;20013;-71
2022/02/03 15:18:25;;;;;;;9.10;4.72;;;;;;;;;;5069318;28;20017;-72
2022/02/03 15:20:50;;;;;;;9.65;4.90;;;;;;;;;;5067355;28;20103;-70
2022/02/03 15:23:15;;;;;;;11.18;4.50;;;;;;;;;;5069843;28;20092;-69
2022/02/03 15:25:40;;;;;;;11.77;5.47;;;;;;;;;;5070924;28;20032;-71
2022/02/03 15:28:06;;;;;;;12.65;5.18;;;;;;;;;;5071956;28;20016;-70
2022/02/03 15:30:32;;;;;;;13.18;4.95;;;;;;;;;;5073862;28;20025;-71
2022/02/03 15:32:57;;;;;;;16.48;6.75;;;;;;;;;;5075055;28;20008;-71
2022/02/03 15:37:51;;;;;;;15.68;5.70;;;;;;;;;;5073168;28;20035;-71
2022/02/03 15:40:21;;;;;;;11.43;3.88;;;;;;;;;;5069389;28;20055;-69
2022/02/03 15:42:54;;;;;;;8.25;4.35;;;;;;;;;;5053511;28;20078;-70
2022/02/03 15:45:19;;;;;;;7.43;3.83;;;;;;;;;;5074595;28;20051;-71
2022/02/03 15:47:51;;;;;;;12.20;5.00;;;;;;;;;;5071727;28;20652;-69
2022/02/03 16:03:59;;;;;;;11.80;4.10;;;;;;;;;;5053035;28;20466;-70
2022/02/03 16:17:03;;;;;;;15.00;4.90;;;;;;;;;;5073465;28;20058;-71
2022/02/03 16:19:38;;;;;;;;;;;;;;;;;;5072369;28;20117;-69
2022/02/03 16:22:14;;;;;;;8.52;3.83;;;;;;;;;;5071848;28;19904;-70
2022/02/03 16:24:51;;;;;;;14.02;5.32;;;;;;;;;;5058837;28;20457;-70
2022/02/03 16:54:27;;;;;;;11.57;4.50;;;;;;;;;;5069169;28;20442;-69
2022/02/03 16:56:58;;;;;;;9.60;5.47;;;;;;;;;;5069234;28;20029;-71
2022/02/03 16:59:24;;;;;;;14.32;5.63;;;;;;;;;;5067491;28;20465;-71
2022/02/03 17:01:49;;;;;;;15.98;5.38;;;;;;;;;;5063547;28;20160;-72
2022/02/03 17:04:18;;;;;;;15.23;5.07;;;;;;;;;;5068492;28;20183;-71
2022/02/03 17:06:44;;;;;;;8.45;3.47;;;;;;;;;;5065070;28;20057;-70
2022/02/03 17:09:09;;;;;;;11.88;5.25;;;;;;;;;;5062366;28;20028;-72
2022/02/03 17:11:34;;;;;;;9.43;4.33;;;;;;;;;;5064568;28;20039;-71
2022/02/03 17:14:00;;;;;;;15.88;5.05;;;;;;;;;;5067128;28;20329;-72
2022/02/03 17:16:25;;;;;;;9.10;4.37;;;;;;;;;;5065001;28;20540;-72
2022/02/03 17:18:52;;;;;;;9.77;5.22;;;;;;;;;;5066888;28;20265;-72
2022/02/03 17:21:17;;;;;;;15.82;3.42;;;;;;;;;;5063582;28;20046;-71
2022/02/03 17:23:43;;;;;;;15.05;5.82;;;;;;;;;;5069838;28;20029;-69
2022/02/03 17:26:54;;;;;;;14.07;6.50;;;;;;;;;;5069265;28;20020;-70
2022/02/03 17:29:17;;;;;;;12.93;4.95;;;;;;;;;;5064669;28;20107;-71
2022/02/03 17:31:55;;;;;;;9.43;4.18;;;;;;;;;;5067924;28;20103;-70
2022/02/03 17:54:23;;;;;;;15.27;6.80;;;;;;;;;;5069451;28;20646;-72
2022/02/03 18:07:57;;;;;;;12.32;6.72;;;;;;;;;;5111728;28;20071;-89
2022/02/03 18:32:36;;;;;;;10.85;6.25;;;;;;;;;;5110733;28;20379;-89
2022/02/03 18:35:16;;;;;;;14.02;5.88;;;;;;;;;;5110871;28;20019;-89
2022/02/03 18:45:52;;;;;;;10.10;4.82;;;;;;;;;;5101292;28;20706;-89
2022/02/03 18:51:19;;;;;;;18.73;7.47;;;;;;;;;;5110219;28;20693;-90
2022/02/03 18:54:00;;;;;;;17.08;8.25;;;;;;;;;;5091119;28;20027;-91
2022/02/03 18:56:42;;;;;;;14.15;6.30;;;;;;;;;;5092991;28;20028;-89
2022/02/03 18:59:38;;;;;;;15.68;7.22;;;;;;;;;;5097531;28;20046;-90
2022/02/03 19:14:33;;;;;;;18.42;7.13;;;;;;;;;;5088993;28;20032;-90
2022/02/03 19:25:07;;;;;;;19.70;7.78;;;;;;;;;;5113416;28;20074;-91
2022/02/03 20:05:52;;;;;;;20.80;9.77;;;;;;;;;;5131937;28;20028;-91
2022/02/03 20:08:33;;;;;;;18.70;10.30;;;;;;;;;;5098961;28;20046;-89
2022/02/03 20:10:59;;;;;;;18.88;9.38;;;;;;;;;;5094831;28;20084;-89
2022/02/03 20:13:24;;;;;;;20.45;9.30;;;;;;;;;;5094664;28;20031;-89
2022/02/03 20:15:50;;;;;;;22.33;10.95;;;;;;;;;;5095615;28;20020;-90
2022/02/03 20:18:23;;;;;;;18.15;9.63;;;;;;;;;;5095464;28;20026;-89
2022/02/03 20:20:58;;;;;;;22.33;10.30;;;;;;;;;;5096506;28;20023;-90
2022/02/03 20:23:29;;;;;;;30.85;10.10;;;;;;;;;;5113895;28;20103;-90
2022/02/03 20:25:57;;;;;;;19.38;10.75;;;;;;;;;;5096515;28;20020;-90
2022/02/03 20:28:29;;;;;;;20.45;9.38;;;;;;;;;;5097278;28;20015;-91
2022/02/03 20:30:57;;;;;;;16.45;8.43;;;;;;;;;;5097395;28;20102;-89
2022/02/03 20:33:28;;;;;;;16.80;9.07;;;;;;;;;;5097139;28;20011;-92
2022/02/03 20:35:54;;;;;;;25.30;11.10;;;;;;;;;;5097709;28;20076;-89
2022/02/03 20:38:22;;;;;;;16.05;8.07;;;;;;;;;;5099321;28;20027;-90
2022/02/03 20:40:48;;;;;;;20.35;9.38;;;;;;;;;;5112891;28;20035;-90
2022/02/03 20:43:16;;;;;;;17.75;9.23;;;;;;;;;;5092929;28;20708;-90
2022/02/03 20:45:42;;;;;;;20.45;10.18;;;;;;;;;;5094117;28;20031;-91
2022/02/03 20:48:11;;;;;;;21.95;10.18;;;;;;;;;;5099428;28;20019;-89
2022/02/03 20:50:37;;;;;;;16.02;8.30;;;;;;;;;;5092783;28;20039;-90
2022/02/03 20:53:09;;;;;;;11.73;7.65;;;;;;;;;;5114031;28;20047;-90
2022/02/03 20:55:47;;;;;;;18.70;9.43;;;;;;;;;;5086142;28;20066;-91
2022/02/03 20:58:28;;;;;;;;;;;;;;;;;;;;;
2022/02/03 21:01:09;;;;;;;24.73;11.02;;;;;;;;;;5105099;28;20030;-90
2022/02/03 21:04:27;;;;;;;22.35;9.82;;;;;;;;;;5089098;28;20509;-91
2022/02/03 21:07:01;;;;;;;21.42;11.07;;;;;;;;;;5083336;28;20119;-92
2022/02/03 21:09:48;;;;;;;21.67;11.93;;;;;;;;;;5089437;28;20062;-90
2022/02/03 21:12:53;;;;;;;22.10;9.77;;;;;;;;;;5095135;28;20039;-91
2022/02/03 21:15:32;;;;;;;20.10;10.23;;;;;;;;;;5000018;28;20038;-90
2022/02/03 21:18:10;;;;;;;22.58;10.45;;;;;;;;;;5003590;28;20045;-89
2022/02/03 21:20:38;;;;;;;18.80;9.38;;;;;;;;;;5068736;22;20070;-67
2022/02/03 21:23:04;;;;;;;23.45;9.93;;;;;;;;;;5107410;28;20019;-68
2022/02/03 21:25:34;;;;;;;19.20;9.50;;;;;;;;;;5108894;28;20124;-68
2022/02/03 21:28:07;;;;;;;18.48;9.70;;;;;;;;;;5090179;28;20084;-68
2022/02/03 21:30:33;;;;;;;22.58;12.20;;;;;;;;;;5092963;28;20027;-68
2022/02/03 21:32:58;;;;;;;20.83;9.50;;;;;;;;;;5069813;28;20032;-69
2022/02/03 21:35:24;;;;;;;23.77;9.90;;;;;;;;;;5102246;28;20111;-69
2022/02/03 21:37:49;;;;;;;29.83;13.02;;;;;;;;;;5082156;28;20047;-68
2022/02/03 21:40:15;;;;;;;20.35;11.70;;;;;;;;;;5092921;28;20032;-68
2022/02/03 21:42:41;;;;;;;20.90;10.75;;;;;;;;;;5102637;28;20039;-68
2022/02/03 21:45:06;;;;;;;22.85;12.27;;;;;;;;;;5088947;28;20031;-68
2022/02/03 21:47:32;;;;;;;22.38;12.48;;;;;;;;;;5098915;28;20012;-68
2022/02/03 21:49:59;;;;;;;26.67;12.07;;;;;;;;;;5087870;28;20020;-68
2022/02/03 21:52:32;;;;;;;23.52;12.63;;;;;;;;;;5086375;28;20027;-69
2022/02/03 21:54:59;;;;;;;25.98;12.77;;;;;;;;;;5092208;28;20016;-68
2022/02/03 21:57:24;;;;;;;30.27;12.73;;;;;;;;;;5095881;28;20516;-68
2022/02/03 21:59:52;;;;;;;22.20;11.57;;;;;;;;;;5088324;28;20111;-68
2022/02/03 22:02:17;;;;;;;27.48;13.45;;;;;;;;;;5088624;28;20111;-68
2022/02/03 22:04:42;;;;;;;30.02;12.88;;;;;;;;;;5093774;28;20102;-69
2022/02/03 22:07:07;;;;;;;22.52;10.90;;;;;;;;;;5069296;28;20523;-68
2022/02/03 22:09:34;;;;;;;17.63;8.80;;;;;;;;;;5089924;28;20024;-68
2022/02/03 22:11:59;;;;;;;26.83;13.15;;;;;;;;;;5085060;28;20118;-69
2022/02/03 22:14:24;;;;;;;20.65;10.65;;;;;;;;;;5087734;28;20487;-68
2022/02/03 22:16:50;;;;;;;26.58;11.55;;;;;;;;;;5072502;28;20016;-68
2022/02/03 22:19:15;;;;;;;31.92;10.35;;;;;;;;;;5086370;28;20484;-68
2022/02/03 22:21:52;;;;;;;34.65;14.23;;;;;;;;;;5088097;28;20115;-68
2022/02/03 22:24:36;;;;;;;22.20;12.52;;;;;;;;;;5088045;28;20038;-68
2022/02/03 22:42:21;;;;;;;29.38;12.25;;;;;;;;;;5087631;28;20133;-68
2022/02/03 22:48:57;;;;;;;22.95;10.32;;;;;;;;;;5093544;28;20015;-68
2022/02/03 22:51:22;;;;;;;21.45;11.63;;;;;;;;;;5074027;28;20423;-68
2022/02/03 22:53:48;;;;;;;20.02;10.82;;;;;;;;;;5094126;28;20024;-68
2022/02/03 22:56:13;;;;;;;30.15;14.82;;;;;;;;;;5094117;28;20438;-68
2022/02/03 23:01:23;;;;;;;28.75;13.75;;;;;;;;;;5094334;28;20089;-68
2022/02/03 23:03:48;;;;;;;25.85;12.77;;;;;;;;;;5093581;28;20031;-68
2022/02/03 23:06:14;;;;;;;32.22;13.65;;;;;;;;;;5093885;28;20198;-68
2022/02/03 23:19:00;;;;;;;26.52;13.57;;;;;;;;;;5093456;28;20106;-68
2022/02/03 23:23:55;;;;;;;30.45;13.52;;;;;;;;;;5091812;28;20468;-68
2022/02/03 23:26:22;;;;;;;22.50;10.88;;;;;;;;;;5092606;28;20028;-68
2022/02/03 23:28:48;;;;;;;25.65;13.32;;;;;;;;;;5092344;28;20023;-68
2022/02/03 23:31:16;;;;;;;26.35;13.35;;;;;;;;;;5074915;28;20386;-68
2022/02/03 23:33:42;;;;;;;26.10;12.43;;;;;;;;;;5092962;28;20024;-68
2022/02/03 23:36:07;;;;;;;27.38;11.32;;;;;;;;;;5092865;28;20020;-68
2022/02/03 23:38:56;;;;;;;26.40;11.68;;;;;;;;;;5093330;28;20047;-68
2022/02/03 23:44:12;;;;;;;32.97;13.02;;;;;;;;;;5092729;28;20039;-68
2022/02/03 23:49:56;;;;;;;24.50;12.02;;;;;;;;;;5091699;28;20028;-68
2022/02/03 23:52:21;;;;;;;24.80;11.40;;;;;;;;;;5092226;28;20034;-68
